createdAt,value
2023-02-17T00:01:13.589Z,100688.50
2023-02-17T00:03:40.748Z,100680.94
2023-02-17T00:06:10.669Z,100678.34
2023-02-17T00:08:38.099Z,100680.28
2023-02-17T00:11:05.618Z,100678.13
2023-02-17T00:13:33.469Z,100680.94
2023-02-17T00:16:00.847Z,100671.28
2023-02-17T00:18:27.990Z,100661.94
2023-02-17T00:20:55.059Z,100683.59
2023-02-17T00:23:22.159Z,100676.63
2023-02-17T00:25:49.248Z,100681.91
2023-02-17T00:28:16.326Z,100681.38
2023-02-17T00:30:43.424Z,100681.25
2023-02-17T00:33:10.482Z,100683.50
2023-02-17T00:35:40.876Z,100663.78
2023-02-17T00:38:09.286Z,100678.88
2023-02-17T00:40:36.395Z,100678.56
2023-02-17T00:43:03.493Z,100681.19
2023-02-17T00:45:30.649Z,100675.69
2023-02-17T00:47:57.786Z,100672.81
2023-02-17T00:50:24.880Z,100675.91
2023-02-17T00:52:51.914Z,100668.97
2023-02-17T00:55:19.013Z,100667.16
2023-02-17T00:57:46.085Z,100676.59
2023-02-17T01:00:13.918Z,100671.53
2023-02-17T01:02:40.975Z,100673.88
2023-02-17T01:05:08.604Z,100665.28
2023-02-17T01:07:37.410Z,100667.03
2023-02-17T01:10:05.770Z,100656.69
2023-02-17T01:12:33.112Z,100664.03
2023-02-17T01:15:01.085Z,100656.19
2023-02-17T01:17:28.426Z,100638.94
2023-02-17T01:19:55.684Z,100651.50
2023-02-17T01:22:22.909Z,100656.47
2023-02-17T01:24:50.036Z,100650.31
2023-02-17T01:27:17.111Z,100658.38
2023-02-17T01:29:46.156Z,100656.56
2023-02-17T01:32:13.215Z,100656.44
2023-02-17T01:34:40.335Z,100651.88
2023-02-17T01:37:07.408Z,100656.81
2023-02-17T01:39:36.573Z,100657.94
2023-02-17T01:42:03.788Z,100665.44
2023-02-17T01:44:32.647Z,100666.50
2023-02-17T01:46:59.693Z,100669.03
2023-02-17T01:49:38.135Z,100669.22
2023-02-17T01:52:13.164Z,100657.75
2023-02-17T01:54:48.818Z,100659.50
2023-02-17T01:57:19.652Z,100659.53
2023-02-17T01:59:47.063Z,100665.47
2023-02-17T02:02:15.689Z,100669.09
2023-02-17T02:04:46.830Z,100669.34
2023-02-17T02:07:39.203Z,100665.69
2023-02-17T02:10:07.508Z,100668.94
2023-02-17T02:12:39.427Z,100675.44
2023-02-17T02:15:09.270Z,100677.97
2023-02-17T02:18:05.836Z,100685.38
2023-02-17T02:20:42.961Z,100676.13
2023-02-17T02:23:37.850Z,100669.03
2023-02-17T02:26:46.300Z,100667.13
2023-02-17T02:29:56.946Z,100666.91
2023-02-17T02:33:08.172Z,100669.34
2023-02-17T02:35:46.884Z,100677.38
2023-02-17T02:38:20.970Z,100680.53
2023-02-17T02:40:54.542Z,100676.56
2023-02-17T02:43:23.871Z,100676.19
2023-02-17T02:45:51.022Z,100675.03
2023-02-17T02:48:20.050Z,100669.69
2023-02-17T02:51:19.477Z,100673.16
2023-02-17T02:53:50.024Z,100681.22
2023-02-17T02:56:36.863Z,100671.81
2023-02-17T02:59:06.723Z,100681.03
2023-02-17T03:01:57.707Z,100671.78
2023-02-17T03:04:26.676Z,100667.72
2023-02-17T03:06:59.131Z,100667.66
2023-02-17T03:09:28.071Z,100667.19
2023-02-17T03:11:57.215Z,100664.78
2023-02-17T03:14:27.579Z,100676.28
2023-02-17T03:16:55.530Z,100679.34
2023-02-17T03:19:26.066Z,100681.03
2023-02-17T03:21:59.361Z,100678.78
2023-02-17T03:24:26.424Z,100676.44
2023-02-17T03:26:57.133Z,100666.72
2023-02-17T03:29:24.229Z,100661.56
2023-02-17T03:31:51.509Z,100670.59
2023-02-17T03:34:18.832Z,100675.00
2023-02-17T03:36:45.928Z,100670.72
2023-02-17T03:39:13.009Z,100671.91
2023-02-17T03:41:40.087Z,100665.50
2023-02-17T03:44:07.145Z,100680.38
2023-02-17T03:46:34.362Z,100681.69
2023-02-17T03:49:01.460Z,100681.06
2023-02-17T03:51:28.579Z,100677.97
2023-02-17T03:53:55.627Z,100658.25
2023-02-17T03:56:22.915Z,100680.66
2023-02-17T03:58:50.042Z,100672.41
2023-02-17T04:01:17.267Z,100667.56
2023-02-17T04:03:44.517Z,100674.44
2023-02-17T04:06:12.203Z,100681.25
2023-02-17T04:08:39.707Z,100674.03
2023-02-17T04:11:09.137Z,100682.81
2023-02-17T04:13:37.522Z,100693.06
2023-02-17T04:16:07.592Z,100681.44
2023-02-17T04:18:35.841Z,100690.00
2023-02-17T04:21:03.669Z,100683.31
2023-02-17T04:23:30.845Z,100678.41
2023-02-17T04:25:57.966Z,100675.66
2023-02-17T04:28:25.023Z,100679.19
2023-02-17T04:30:52.263Z,100666.09
2023-02-17T04:33:19.377Z,100667.84
2023-02-17T04:35:47.865Z,100668.47
2023-02-17T04:38:15.147Z,100668.88
2023-02-17T04:40:42.311Z,100667.28
2023-02-17T04:43:09.924Z,100660.81
2023-02-17T04:45:37.585Z,100663.47
2023-02-17T04:48:04.865Z,100648.88
2023-02-17T04:50:31.975Z,100661.34
2023-02-17T04:52:59.073Z,100664.06
2023-02-17T04:55:26.137Z,100669.53
2023-02-17T04:57:53.228Z,100673.63
2023-02-17T05:00:20.952Z,100677.16
2023-02-17T05:02:48.074Z,100681.41
2023-02-17T05:05:15.555Z,100674.47
2023-02-17T05:07:43.448Z,100676.16
2023-02-17T05:10:10.869Z,100686.38
2023-02-17T05:12:38.189Z,100679.63
2023-02-17T05:15:06.159Z,100678.75
2023-02-17T05:17:33.320Z,100682.22
2023-02-17T05:20:00.700Z,100679.97
2023-02-17T05:22:28.158Z,100684.00
2023-02-17T05:24:55.190Z,100687.69
2023-02-17T05:27:22.542Z,100679.59
2023-02-17T05:29:51.900Z,100683.88
2023-02-17T05:32:19.247Z,100670.09
2023-02-17T05:34:46.407Z,100671.09
2023-02-17T05:37:13.553Z,100677.56
2023-02-17T05:39:40.673Z,100682.56
2023-02-17T05:42:07.737Z,100672.25
2023-02-17T05:44:34.866Z,100684.09
2023-02-17T05:47:01.933Z,100689.91
2023-02-17T05:49:29.262Z,100690.41
2023-02-17T05:51:56.310Z,100679.47
2023-02-17T05:54:23.352Z,100687.88
2023-02-17T05:56:50.473Z,100679.16
2023-02-17T05:59:17.636Z,100684.75
2023-02-17T06:01:44.731Z,100678.03
2023-02-17T06:04:11.815Z,100681.56
2023-02-17T06:06:38.918Z,100683.13
2023-02-17T06:09:06.054Z,100657.81
2023-02-17T06:11:33.850Z,100676.28
2023-02-17T06:14:01.340Z,100684.47
2023-02-17T06:16:28.673Z,100678.25
2023-02-17T06:18:55.801Z,100686.88
2023-02-17T06:21:22.898Z,100682.00
2023-02-17T06:23:49.947Z,100686.56
2023-02-17T06:26:18.667Z,100686.13
2023-02-17T06:28:45.997Z,100684.34
2023-02-17T06:31:13.159Z,100686.66
2023-02-17T06:33:40.312Z,100694.81
2023-02-17T06:36:08.263Z,100688.34
2023-02-17T06:38:35.543Z,100681.44
2023-02-17T06:41:02.613Z,100687.59
2023-02-17T06:43:29.646Z,100696.72
2023-02-17T06:45:56.786Z,100690.13
2023-02-17T06:48:23.910Z,100691.97
2023-02-17T06:50:51.022Z,100696.72
2023-02-17T06:53:18.096Z,100692.94
2023-02-17T06:55:45.371Z,100693.78
2023-02-17T06:58:12.445Z,100688.50
2023-02-17T07:00:39.582Z,100691.88
2023-02-17T07:03:06.914Z,100693.78
2023-02-17T07:05:38.744Z,100683.22
2023-02-17T07:08:06.669Z,100674.97
2023-02-17T07:10:34.217Z,100690.09
2023-02-17T07:13:01.240Z,100691.25
2023-02-17T07:15:28.336Z,100685.63
2023-02-17T07:17:55.669Z,100682.78
2023-02-17T07:20:22.796Z,100666.16
2023-02-17T07:22:49.958Z,100679.66
2023-02-17T07:25:17.014Z,100677.75
2023-02-17T07:27:44.149Z,100672.72
2023-02-17T07:30:11.801Z,100683.84
2023-02-17T07:32:38.996Z,100658.88
2023-02-17T07:35:06.688Z,100660.84
2023-02-17T07:37:34.937Z,100673.44
2023-02-17T07:40:02.209Z,100669.31
2023-02-17T07:42:30.770Z,100676.88
2023-02-17T07:44:57.858Z,100672.25
2023-02-17T07:47:24.927Z,100664.28
2023-02-17T07:49:52.012Z,100671.75
2023-02-17T07:52:19.315Z,100676.16
2023-02-17T07:54:46.430Z,100671.00
2023-02-17T07:57:13.695Z,100666.91
2023-02-17T07:59:40.785Z,100670.72
2023-02-17T08:02:08.036Z,100666.06
2023-02-17T08:04:35.163Z,100659.78
2023-02-17T08:07:02.259Z,100656.28
2023-02-17T08:09:47.817Z,100645.25
2023-02-17T08:12:38.556Z,100662.28
2023-02-17T08:15:08.043Z,100662.13
2023-02-17T08:17:35.427Z,100648.47
2023-02-17T08:20:08.735Z,100653.22
2023-02-17T08:22:37.482Z,100660.19
2023-02-17T08:25:06.431Z,100661.06
2023-02-17T08:27:33.782Z,100659.78
2023-02-17T08:30:01.063Z,100653.91
2023-02-17T08:32:28.416Z,100646.16
2023-02-17T08:34:56.957Z,100647.88
2023-02-17T08:37:24.591Z,100647.88
2023-02-17T08:39:51.969Z,100650.41
2023-02-17T08:42:20.055Z,100645.84
2023-02-17T08:44:47.341Z,100651.78
2023-02-17T08:47:14.657Z,100645.78
2023-02-17T08:49:41.781Z,100657.91
2023-02-17T08:52:08.968Z,100651.94
2023-02-17T08:54:36.784Z,100649.59
2023-02-17T08:57:04.153Z,100661.53
2023-02-17T08:59:31.986Z,100653.28
2023-02-17T09:01:59.357Z,100654.34
2023-02-17T09:04:26.538Z,100646.50
2023-02-17T09:06:58.598Z,100643.81
2023-02-17T09:09:27.259Z,100634.59
2023-02-17T09:11:58.083Z,100632.88
2023-02-17T09:14:25.924Z,100643.22
2023-02-17T09:16:54.508Z,100638.94
2023-02-17T09:19:22.576Z,100635.41
2023-02-17T09:21:49.990Z,100625.69
2023-02-17T09:24:17.622Z,100629.38
2023-02-17T09:26:44.872Z,100616.84
2023-02-17T09:29:12.110Z,100634.56
2023-02-17T09:31:39.468Z,100627.44
2023-02-17T09:34:06.677Z,100597.59
2023-02-17T09:36:39.153Z,100618.88
2023-02-17T09:39:06.562Z,100629.25
2023-02-17T09:41:37.955Z,100625.59
2023-02-17T09:44:27.295Z,100623.75
2023-02-17T09:47:05.789Z,100623.25
2023-02-17T09:49:44.966Z,100625.13
2023-02-17T09:52:18.462Z,100623.84
2023-02-17T09:55:01.275Z,100628.16
2023-02-17T09:57:31.166Z,100627.25
2023-02-17T10:00:07.972Z,100605.03
2023-02-17T10:02:58.022Z,100618.50
2023-02-17T10:05:30.503Z,100608.81
2023-02-17T10:08:07.993Z,100621.66
2023-02-17T10:10:59.353Z,100610.63
2023-02-17T10:13:31.349Z,100616.25
2023-02-17T10:16:03.445Z,100620.41
2023-02-17T10:18:52.069Z,100613.13
2023-02-17T10:21:25.787Z,100613.31
2023-02-17T10:23:53.108Z,100601.25
2023-02-17T10:26:55.743Z,100596.69
2023-02-17T10:29:41.810Z,100596.09
2023-02-17T10:32:27.742Z,100593.41
2023-02-17T10:35:23.052Z,100579.53
2023-02-17T10:38:03.111Z,100582.38
2023-02-17T10:40:30.747Z,100588.38
2023-02-17T10:43:01.481Z,100582.84
2023-02-17T10:45:36.293Z,100580.13
2023-02-17T10:48:09.638Z,100578.50
2023-02-17T10:50:38.335Z,100569.44
2023-02-17T10:53:25.269Z,100552.59
2023-02-17T10:56:08.555Z,100561.03
2023-02-17T10:59:16.963Z,100559.78
2023-02-17T11:01:44.272Z,100552.19
2023-02-17T11:04:13.948Z,100550.56
2023-02-17T11:06:50.176Z,100550.88
2023-02-17T11:09:29.616Z,100560.59
2023-02-17T11:12:15.140Z,100553.78
2023-02-17T11:14:48.941Z,100556.44
2023-02-17T11:17:38.382Z,100550.06
2023-02-17T11:20:30.853Z,100550.25
2023-02-17T11:23:05.154Z,100545.63
2023-02-17T11:25:35.669Z,100556.31
2023-02-17T11:28:06.559Z,100551.38
2023-02-17T11:30:35.557Z,100551.97
2023-02-17T11:33:20.582Z,100547.44
2023-02-17T11:35:55.182Z,100545.16
2023-02-17T11:38:43.796Z,100542.06
2023-02-17T11:41:11.322Z,100534.78
2023-02-17T11:43:39.397Z,100527.97
2023-02-17T11:46:22.595Z,100536.38
2023-02-17T11:49:14.278Z,100531.97
2023-02-17T11:51:50.338Z,100529.00
2023-02-17T11:54:35.413Z,100524.47
2023-02-17T11:57:30.032Z,100523.78
2023-02-17T12:00:03.267Z,100524.56
2023-02-17T12:02:53.397Z,100529.59
2023-02-17T12:05:51.342Z,100527.91
2023-02-17T12:08:47.856Z,100520.72
2023-02-17T12:11:37.830Z,100516.72
2023-02-17T12:14:32.552Z,100517.59
2023-02-17T12:17:21.598Z,100516.09
2023-02-17T12:20:07.243Z,100511.69
2023-02-17T12:23:12.999Z,100512.31
2023-02-17T12:25:50.937Z,100508.38
2023-02-17T12:28:42.022Z,100508.13
2023-02-17T12:31:32.373Z,100505.34
2023-02-17T12:34:21.630Z,100500.88
2023-02-17T12:36:51.788Z,100509.06
2023-02-17T12:39:26.009Z,100509.38
2023-02-17T12:42:00.520Z,100511.25
2023-02-17T12:44:37.232Z,100515.09
2023-02-17T12:47:15.576Z,100511.91
2023-02-17T12:49:45.398Z,100514.41
2023-02-17T12:52:24.260Z,100503.94
2023-02-17T12:55:11.310Z,100510.56
2023-02-17T12:57:57.323Z,100513.56
2023-02-17T13:00:30.413Z,100520.44
2023-02-17T13:02:59.228Z,100516.25
2023-02-17T13:05:56.590Z,100510.91
2023-02-17T13:08:33.772Z,100510.53
2023-02-17T13:11:05.956Z,100510.00
2023-02-17T13:13:34.939Z,100502.31
2023-02-17T13:16:03.735Z,100490.91
2023-02-17T13:18:34.508Z,100502.34
2023-02-17T13:21:27.727Z,100481.06
2023-02-17T13:24:14.854Z,100504.88
2023-02-17T13:26:43.701Z,100496.31
2023-02-17T13:29:32.455Z,100502.69
2023-02-17T13:32:02.433Z,100491.47
2023-02-17T13:34:29.831Z,100493.78
2023-02-17T13:36:58.145Z,100487.91
2023-02-17T13:39:28.419Z,100495.25
2023-02-17T13:41:58.788Z,100492.22
2023-02-17T13:44:40.056Z,100492.84
2023-02-17T13:47:16.827Z,100492.09
2023-02-17T13:49:57.021Z,100479.22
2023-02-17T13:52:27.795Z,100468.31
2023-02-17T13:55:00.466Z,100483.78
2023-02-17T13:57:30.019Z,100477.09
2023-02-17T14:00:19.047Z,100482.03
2023-02-17T14:02:49.533Z,100474.84
2023-02-17T14:05:20.842Z,100474.88
2023-02-17T14:07:49.491Z,100467.38
2023-02-17T14:10:23.665Z,100461.31
2023-02-17T14:12:52.138Z,100478.75
2023-02-17T14:15:26.217Z,100471.19
2023-02-17T14:17:54.097Z,100476.06
2023-02-17T14:20:34.456Z,100475.00
2023-02-17T14:23:13.002Z,100477.75
2023-02-17T14:25:45.025Z,100468.53
2023-02-17T14:28:24.883Z,100466.34
2023-02-17T14:30:53.006Z,100469.31
2023-02-17T14:33:25.170Z,100471.66
2023-02-17T14:36:00.575Z,100473.66
2023-02-17T14:38:37.609Z,100472.28
2023-02-17T14:41:06.511Z,100460.88
2023-02-17T14:43:33.812Z,100467.72
2023-02-17T14:46:01.283Z,100474.09
2023-02-17T14:48:28.523Z,100468.31
2023-02-17T14:50:58.491Z,100471.06
2023-02-17T14:53:34.012Z,100473.81
2023-02-17T14:56:07.240Z,100459.50
2023-02-17T14:58:34.806Z,100454.59
2023-02-17T15:01:02.190Z,100477.19
2023-02-17T15:03:29.441Z,100470.06
2023-02-17T15:05:56.947Z,100470.44
2023-02-17T15:08:34.370Z,100476.63
2023-02-17T15:11:02.426Z,100455.81
2023-02-17T15:13:31.920Z,100466.50
2023-02-17T15:15:59.557Z,100469.84
2023-02-17T15:18:28.131Z,100465.72
2023-02-17T15:20:57.006Z,100471.91
2023-02-17T15:23:27.667Z,100468.00
2023-02-17T15:25:56.221Z,100454.00
2023-02-17T15:28:23.436Z,100469.34
2023-02-17T15:30:55.703Z,100470.59
2023-02-17T15:33:24.112Z,100466.84
2023-02-17T15:35:56.473Z,100471.09
2023-02-17T15:38:24.469Z,100471.94
2023-02-17T15:40:51.665Z,100474.25
2023-02-17T15:43:22.040Z,100468.31
2023-02-17T15:45:49.490Z,100472.66
2023-02-17T15:48:29.984Z,100470.91
2023-02-17T15:50:57.191Z,100473.63
2023-02-17T15:53:24.349Z,100462.50
2023-02-17T15:55:52.854Z,100470.50
2023-02-17T15:58:23.323Z,100464.47
2023-02-17T16:00:51.398Z,100440.84
2023-02-17T16:03:19.705Z,100452.53
2023-02-17T16:05:48.027Z,100450.34
2023-02-17T16:08:15.149Z,100448.19
2023-02-17T16:10:45.601Z,100445.19
2023-02-17T16:13:19.101Z,100447.19
2023-02-17T16:15:49.003Z,100426.03
2023-02-17T16:18:24.572Z,100443.72
2023-02-17T16:20:52.135Z,100428.06
2023-02-17T16:23:19.408Z,100424.50
2023-02-17T16:25:48.278Z,100439.53
2023-02-17T16:28:21.071Z,100437.41
2023-02-17T16:30:49.753Z,100427.97
2023-02-17T16:33:17.665Z,100429.16
2023-02-17T16:35:45.635Z,100430.00
2023-02-17T16:38:22.726Z,100408.97
2023-02-17T16:40:52.306Z,100398.56
2023-02-17T16:43:30.664Z,100420.44
2023-02-17T16:46:01.769Z,100427.50
2023-02-17T16:48:34.105Z,100421.91
2023-02-17T16:51:01.648Z,100411.19
2023-02-17T16:53:28.766Z,100412.47
2023-02-17T16:55:56.491Z,100413.53
2023-02-17T16:58:26.031Z,100396.59
2023-02-17T17:00:56.580Z,100403.44
2023-02-17T17:03:23.903Z,100406.69
2023-02-17T17:05:54.257Z,100389.34
2023-02-17T17:08:22.295Z,100387.50
2023-02-17T17:10:49.849Z,100372.41
2023-02-17T17:13:17.124Z,100363.25
2023-02-17T17:15:46.262Z,100375.66
2023-02-17T17:18:21.478Z,100377.16
2023-02-17T17:20:48.769Z,100377.16
2023-02-17T17:23:16.482Z,100366.34
2023-02-17T17:25:47.552Z,100366.28
2023-02-17T17:28:19.305Z,100374.56
2023-02-17T17:30:47.168Z,100359.28
2023-02-17T17:33:14.429Z,100367.94
2023-02-17T17:35:41.648Z,100362.06
2023-02-17T17:38:13.557Z,100338.47
2023-02-17T17:40:53.475Z,100355.94
2023-02-17T17:43:22.427Z,100349.91
2023-02-17T17:45:51.021Z,100346.56
2023-02-17T17:48:18.829Z,100334.69
2023-02-17T17:50:46.378Z,100336.56
2023-02-17T17:53:13.484Z,100324.00
2023-02-17T17:55:40.577Z,100329.03
2023-02-17T17:58:07.756Z,100331.47
2023-02-17T18:00:34.928Z,100341.53
2023-02-17T18:03:02.027Z,100335.47
2023-02-17T18:05:29.351Z,100328.69
2023-02-17T18:07:56.758Z,100303.09
2023-02-17T18:10:24.174Z,100307.66
2023-02-17T18:12:51.840Z,100322.13
2023-02-17T18:15:19.264Z,100322.13
2023-02-17T18:17:47.503Z,100311.91
2023-02-17T18:20:15.078Z,100311.06
2023-02-17T18:22:42.360Z,100313.72
2023-02-17T18:25:09.667Z,100315.41
2023-02-17T18:27:44.963Z,100317.09
2023-02-17T18:30:16.160Z,100318.34
2023-02-17T18:32:44.366Z,100314.44
2023-02-17T18:35:12.470Z,100320.38
2023-02-17T18:37:41.219Z,100306.03
2023-02-17T18:40:12.715Z,100317.91
2023-02-17T18:42:41.208Z,100320.91
2023-02-17T18:45:09.398Z,100313.78
2023-02-17T18:47:36.546Z,100304.50
2023-02-17T18:50:05.292Z,100288.00
2023-02-17T18:52:32.486Z,100309.88
2023-02-17T18:54:59.638Z,100308.53
2023-02-17T18:57:26.674Z,100302.69
2023-02-17T18:59:53.765Z,100303.38
2023-02-17T19:02:22.115Z,100297.53
2023-02-17T19:04:53.042Z,100295.13
2023-02-17T19:07:21.244Z,100291.78
2023-02-17T19:09:53.335Z,100291.72
2023-02-17T19:12:20.605Z,100286.88
2023-02-17T19:14:48.678Z,100280.88
2023-02-17T19:17:18.477Z,100276.84
2023-02-17T19:19:46.045Z,100277.59
2023-02-17T19:22:13.247Z,100266.19
2023-02-17T19:24:42.219Z,100286.31
2023-02-17T19:27:10.318Z,100281.41
2023-02-17T19:29:37.782Z,100279.72
2023-02-17T19:32:05.168Z,100294.38
2023-02-17T19:34:32.533Z,100282.66
2023-02-17T19:36:59.717Z,100278.22
2023-02-17T19:39:26.925Z,100280.84
2023-02-17T19:41:54.001Z,100274.28
2023-02-17T19:44:21.082Z,100276.66
2023-02-17T19:46:48.374Z,100273.56
2023-02-17T19:49:15.681Z,100279.19
2023-02-17T19:51:42.826Z,100280.22
2023-02-17T19:54:09.925Z,100278.53
2023-02-17T19:56:39.085Z,100275.91
2023-02-17T19:59:06.242Z,100279.78
2023-02-17T20:01:34.547Z,100273.19
2023-02-17T20:04:04.494Z,100268.13
2023-02-17T20:06:54.303Z,100267.91
2023-02-17T20:09:23.443Z,100267.91
2023-02-17T20:11:53.227Z,100264.28
2023-02-17T20:14:21.730Z,100247.88
2023-02-17T20:16:49.366Z,100246.19
2023-02-17T20:19:16.492Z,100245.13
2023-02-17T20:21:45.958Z,100255.19
2023-02-17T20:24:14.214Z,100254.59
2023-02-17T20:26:45.422Z,100251.97
2023-02-17T20:29:14.015Z,100257.00
2023-02-17T20:31:42.324Z,100254.00
2023-02-17T20:34:23.157Z,100251.19
2023-02-17T20:36:50.239Z,100256.28
2023-02-17T20:39:17.327Z,100244.88
2023-02-17T20:41:44.390Z,100252.81
2023-02-17T20:44:12.594Z,100242.38
2023-02-17T20:46:41.633Z,100247.06
2023-02-17T20:49:08.877Z,100244.25
2023-02-17T20:51:35.961Z,100240.09
2023-02-17T20:54:03.150Z,100222.66
2023-02-17T20:56:38.358Z,100218.84
2023-02-17T20:59:06.494Z,100226.69
2023-02-17T21:01:33.654Z,100220.56
2023-02-17T21:04:00.730Z,100216.00
2023-02-17T21:06:33.512Z,100214.41
2023-02-17T21:09:04.307Z,100205.69
2023-02-17T21:11:33.157Z,100203.06
2023-02-17T21:14:00.473Z,100190.97
2023-02-17T21:16:31.200Z,100193.97
2023-02-17T21:18:59.678Z,100188.69
2023-02-17T21:21:29.546Z,100187.13
2023-02-17T21:23:57.567Z,100176.81
2023-02-17T21:26:24.877Z,100179.81
2023-02-17T21:28:52.070Z,100176.06
2023-02-17T21:31:20.179Z,100169.22
2023-02-17T21:33:47.569Z,100167.44
2023-02-17T21:36:17.630Z,100160.88
2023-02-17T21:38:45.167Z,100141.63
2023-02-17T21:41:15.820Z,100169.59
2023-02-17T21:44:01.918Z,100171.97
2023-02-17T21:46:30.396Z,100151.91
2023-02-17T21:48:59.174Z,100157.53
2023-02-17T21:51:27.362Z,100164.25
2023-02-17T21:53:54.608Z,100159.94
2023-02-17T21:56:23.385Z,100152.16
2023-02-17T21:58:52.719Z,100151.44
2023-02-17T22:01:21.927Z,100128.72
2023-02-17T22:03:49.118Z,100140.44
2023-02-17T22:06:18.775Z,100139.00
2023-02-17T22:08:46.413Z,100132.88
2023-02-17T22:11:18.379Z,100127.72
2023-02-17T22:13:45.724Z,100130.31
2023-02-17T22:16:13.136Z,100105.00
2023-02-17T22:18:40.542Z,100127.72
2023-02-17T22:21:10.015Z,100115.75
2023-02-17T22:23:37.904Z,100122.56
2023-02-17T22:26:07.888Z,100120.09
2023-02-17T22:28:35.384Z,100125.97
2023-02-17T22:31:02.809Z,100113.38
2023-02-17T22:33:30.126Z,100108.22
2023-02-17T22:36:06.055Z,100109.63
2023-02-17T22:38:34.326Z,100109.09
2023-02-17T22:41:05.946Z,100109.16
2023-02-17T22:43:35.491Z,100104.84
2023-02-17T22:46:02.868Z,100101.22
2023-02-17T22:48:31.186Z,100097.91
2023-02-17T22:50:58.475Z,100093.50
2023-02-17T22:53:25.540Z,100078.28
2023-02-17T22:55:56.859Z,100087.88
2023-02-17T22:58:25.598Z,100093.91
2023-02-17T23:01:02.364Z,100071.13
2023-02-17T23:03:29.469Z,100084.75
2023-02-17T23:06:11.232Z,100073.78
2023-02-17T23:08:38.874Z,100081.41
2023-02-17T23:11:08.314Z,100073.00
2023-02-17T23:13:36.522Z,100070.72
2023-02-17T23:16:05.135Z,100071.75
2023-02-17T23:18:34.498Z,100054.75
2023-02-17T23:21:09.612Z,100071.75
2023-02-17T23:23:36.703Z,100068.25
2023-02-17T23:26:04.674Z,100060.09
2023-02-17T23:28:31.746Z,100050.72
2023-02-17T23:30:58.802Z,100053.66
2023-02-17T23:33:25.914Z,100038.44
2023-02-17T23:35:53.041Z,100037.22
2023-02-17T23:38:21.313Z,100031.38
2023-02-17T23:40:53.172Z,100027.78
2023-02-17T23:43:21.795Z,100008.16
2023-02-17T23:45:49.196Z,100023.25
2023-02-17T23:48:16.693Z,100026.94
2023-02-17T23:50:43.793Z,100018.91
2023-02-17T23:53:10.868Z,100013.09
2023-02-17T23:55:37.921Z,100016.72
2023-02-17T23:58:04.972Z,100013.78
